sensor_id;sensor_type;location;lat;lon;timestamp;P1;durP1;ratioP1;P2;durP2;ratioP2
5414;SDS011;2730;51.512;7.504;2023-01-29T00:03:15;58.08;;;19.38;;
5414;SDS011;2730;51.512;7.504;2023-01-29T00:05:42;58.83;;;20.48;;
5414;SDS011;2730;51.512;7.504;2023-01-29T00:08:10;53.90;;;19.45;;
5414;SDS011;2730;51.512;7.504;2023-01-29T00:10:37;48.95;;;17.60;;
5414;SDS011;2730;51.512;7.504;2023-01-29T00:13:04;47.75;;;18.42;;
5414;SDS011;2730;51.512;7.504;2023-01-29T00:15:31;60.35;;;19.33;;
5414;SDS011;2730;51.512;7.504;2023-01-29T00:17:58;47.80;;;18.17;;
5414;SDS011;2730;51.512;7.504;2023-01-29T00:20:26;53.75;;;19.42;;
5414;SDS011;2730;51.512;7.504;2023-01-29T00:22:53;48.55;;;17.80;;
5414;SDS011;2730;51.512;7.504;2023-01-29T00:25:20;49.45;;;18.95;;
5414;SDS011;2730;51.512;7.504;2023-01-29T00:27:46;55.25;;;20.27;;
5414;SDS011;2730;51.512;7.504;2023-01-29T00:30:13;51.42;;;19.73;;
5414;SDS011;2730;51.512;7.504;2023-01-29T00:32:43;48.03;;;19.83;;
5414;SDS011;2730;51.512;7.504;2023-01-29T00:35:10;48.00;;;18.55;;
5414;SDS011;2730;51.512;7.504;2023-01-29T00:37:38;45.40;;;19.77;;
5414;SDS011;2730;51.512;7.504;2023-01-29T00:40:06;45.22;;;19.80;;
5414;SDS011;2730;51.512;7.504;2023-01-29T00:42:33;50.22;;;21.23;;
5414;SDS011;2730;51.512;7.504;2023-01-29T00:45:17;48.83;;;18.27;;
5414;SDS011;2730;51.512;7.504;2023-01-29T00:47:44;54.88;;;20.08;;
5414;SDS011;2730;51.512;7.504;2023-01-29T00:50:11;46.78;;;19.17;;
5414;SDS011;2730;51.512;7.504;2023-01-29T00:52:39;56.08;;;20.13;;
5414;SDS011;2730;51.512;7.504;2023-01-29T00:55:07;52.83;;;19.15;;
5414;SDS011;2730;51.512;7.504;2023-01-29T00:57:35;57.75;;;20.65;;
5414;SDS011;2730;51.512;7.504;2023-01-29T01:00:03;51.08;;;20.30;;
5414;SDS011;2730;51.512;7.504;2023-01-29T01:02:32;53.75;;;18.40;;
5414;SDS011;2730;51.512;7.504;2023-01-29T01:05:16;58.95;;;20.60;;
5414;SDS011;2730;51.512;7.504;2023-01-29T01:07:45;44.13;;;17.60;;
5414;SDS011;2730;51.512;7.504;2023-01-29T01:10:14;54.85;;;20.98;;
5414;SDS011;2730;51.512;7.504;2023-01-29T01:12:49;52.63;;;20.30;;
5414;SDS011;2730;51.512;7.504;2023-01-29T01:15:18;54.20;;;18.10;;
5414;SDS011;2730;51.512;7.504;2023-01-29T01:17:46;54.80;;;21.98;;
5414;SDS011;2730;51.512;7.504;2023-01-29T01:20:14;46.58;;;18.92;;
5414;SDS011;2730;51.512;7.504;2023-01-29T01:22:40;46.20;;;17.90;;
5414;SDS011;2730;51.512;7.504;2023-01-29T01:25:09;53.97;;;18.80;;
5414;SDS011;2730;51.512;7.504;2023-01-29T01:27:36;56.97;;;19.50;;
5414;SDS011;2730;51.512;7.504;2023-01-29T01:30:06;49.42;;;18.67;;
5414;SDS011;2730;51.512;7.504;2023-01-29T01:32:37;48.50;;;18.60;;
5414;SDS011;2730;51.512;7.504;2023-01-29T01:35:04;46.97;;;18.55;;
5414;SDS011;2730;51.512;7.504;2023-01-29T01:37:32;49.08;;;19.98;;
5414;SDS011;2730;51.512;7.504;2023-01-29T01:40:01;55.80;;;22.60;;
5414;SDS011;2730;51.512;7.504;2023-01-29T01:42:31;52.75;;;18.85;;
5414;SDS011;2730;51.512;7.504;2023-01-29T01:44:58;51.42;;;19.17;;
5414;SDS011;2730;51.512;7.504;2023-01-29T01:47:30;52.50;;;19.23;;
5414;SDS011;2730;51.512;7.504;2023-01-29T01:50:03;46.15;;;18.70;;
5414;SDS011;2730;51.512;7.504;2023-01-29T01:52:34;46.78;;;19.10;;
5414;SDS011;2730;51.512;7.504;2023-01-29T01:55:05;55.13;;;19.73;;
5414;SDS011;2730;51.512;7.504;2023-01-29T01:57:35;53.15;;;19.30;;
5414;SDS011;2730;51.512;7.504;2023-01-29T02:00:04;53.28;;;19.88;;
5414;SDS011;2730;51.512;7.504;2023-01-29T02:02:35;50.58;;;18.73;;
5414;SDS011;2730;51.512;7.504;2023-01-29T06:00:47;56.65;;;20.77;;
5414;SDS011;2730;51.512;7.504;2023-01-29T06:03:14;57.47;;;23.70;;
5414;SDS011;2730;51.512;7.504;2023-01-29T06:05:41;56.95;;;22.27;;
5414;SDS011;2730;51.512;7.504;2023-01-29T06:08:07;65.95;;;22.58;;
5414;SDS011;2730;51.512;7.504;2023-01-29T06:10:34;65.95;;;24.45;;
5414;SDS011;2730;51.512;7.504;2023-01-29T06:13:01;58.83;;;21.42;;
5414;SDS011;2730;51.512;7.504;2023-01-29T06:15:28;60.97;;;21.88;;
5414;SDS011;2730;51.512;7.504;2023-01-29T06:17:56;56.85;;;21.33;;
5414;SDS011;2730;51.512;7.504;2023-01-29T06:20:23;60.15;;;21.60;;
5414;SDS011;2730;51.512;7.504;2023-01-29T06:22:50;58.35;;;21.10;;
5414;SDS011;2730;51.512;7.504;2023-01-29T06:25:17;56.42;;;19.83;;
5414;SDS011;2730;51.512;7.504;2023-01-29T06:27:44;52.78;;;19.73;;
5414;SDS011;2730;51.512;7.504;2023-01-29T06:30:11;49.70;;;20.27;;
5414;SDS011;2730;51.512;7.504;2023-01-29T06:32:38;55.95;;;20.15;;
5414;SDS011;2730;51.512;7.504;2023-01-29T06:35:07;50.38;;;19.42;;
5414;SDS011;2730;51.512;7.504;2023-01-29T06:37:35;53.58;;;17.92;;
5414;SDS011;2730;51.512;7.504;2023-01-29T06:40:02;57.17;;;19.30;;
5414;SDS011;2730;51.512;7.504;2023-01-29T06:42:29;56.47;;;19.90;;
5414;SDS011;2730;51.512;7.504;2023-01-29T06:44:56;49.08;;;18.70;;
5414;SDS011;2730;51.512;7.504;2023-01-29T06:47:23;53.70;;;19.52;;
5414;SDS011;2730;51.512;7.504;2023-01-29T06:49:50;50.30;;;18.25;;
5414;SDS011;2730;51.512;7.504;2023-01-29T06:52:18;55.17;;;18.77;;
5414;SDS011;2730;51.512;7.504;2023-01-29T06:54:45;49.33;;;17.98;;
5414;SDS011;2730;51.512;7.504;2023-01-29T06:57:12;53.45;;;21.02;;
5414;SDS011;2730;51.512;7.504;2023-01-29T06:59:38;47.28;;;18.42;;
5414;SDS011;2730;51.512;7.504;2023-01-29T07:02:06;55.50;;;16.20;;
5414;SDS011;2730;51.512;7.504;2023-01-29T07:04:34;47.92;;;18.45;;
5414;SDS011;2730;51.512;7.504;2023-01-29T07:07:01;51.78;;;19.02;;
5414;SDS011;2730;51.512;7.504;2023-01-29T07:09:30;54.70;;;19.77;;
5414;SDS011;2730;51.512;7.504;2023-01-29T07:11:57;55.88;;;20.25;;
5414;SDS011;2730;51.512;7.504;2023-01-29T07:14:23;53.28;;;19.10;;
5414;SDS011;2730;51.512;7.504;2023-01-29T07:16:50;54.42;;;19.88;;
5414;SDS011;2730;51.512;7.504;2023-01-29T07:19:17;49.85;;;19.35;;
5414;SDS011;2730;51.512;7.504;2023-01-29T07:21:44;54.28;;;20.00;;
5414;SDS011;2730;51.512;7.504;2023-01-29T07:24:11;54.30;;;20.67;;
5414;SDS011;2730;51.512;7.504;2023-01-29T07:26:39;56.35;;;20.58;;
5414;SDS011;2730;51.512;7.504;2023-01-29T07:29:06;51.88;;;19.80;;
5414;SDS011;2730;51.512;7.504;2023-01-29T07:31:33;53.75;;;20.77;;
5414;SDS011;2730;51.512;7.504;2023-01-29T07:33:59;47.05;;;16.92;;
5414;SDS011;2730;51.512;7.504;2023-01-29T07:36:27;51.50;;;18.77;;
5414;SDS011;2730;51.512;7.504;2023-01-29T07:38:54;51.55;;;18.50;;
5414;SDS011;2730;51.512;7.504;2023-01-29T07:41:21;44.83;;;17.35;;
5414;SDS011;2730;51.512;7.504;2023-01-29T07:43:49;54.80;;;19.02;;
5414;SDS011;2730;51.512;7.504;2023-01-29T07:46:16;58.45;;;18.40;;
5414;SDS011;2730;51.512;7.504;2023-01-29T07:48:43;50.65;;;16.63;;
5414;SDS011;2730;51.512;7.504;2023-01-29T07:51:09;43.05;;;17.13;;
5414;SDS011;2730;51.512;7.504;2023-01-29T07:53:36;53.85;;;20.05;;
5414;SDS011;2730;51.512;7.504;2023-01-29T07:56:03;55.05;;;18.63;;
5414;SDS011;2730;51.512;7.504;2023-01-29T07:58:30;45.03;;;19.02;;
5414;SDS011;2730;51.512;7.504;2023-01-29T08:00:59;49.90;;;18.80;;
5414;SDS011;2730;51.512;7.504;2023-01-29T08:03:25;61.38;;;18.75;;
5414;SDS011;2730;51.512;7.504;2023-01-29T08:05:52;49.65;;;17.63;;
5414;SDS011;2730;51.512;7.504;2023-01-29T08:08:19;46.13;;;16.70;;
5414;SDS011;2730;51.512;7.504;2023-01-29T08:10:46;51.72;;;18.60;;
5414;SDS011;2730;51.512;7.504;2023-01-29T08:13:13;47.80;;;18.35;;
5414;SDS011;2730;51.512;7.504;2023-01-29T08:15:41;49.15;;;18.50;;
5414;SDS011;2730;51.512;7.504;2023-01-29T08:18:10;50.25;;;17.98;;
5414;SDS011;2730;51.512;7.504;2023-01-29T08:20:37;48.85;;;18.95;;
5414;SDS011;2730;51.512;7.504;2023-01-29T08:23:05;53.28;;;19.10;;
5414;SDS011;2730;51.512;7.504;2023-01-29T08:25:35;56.00;;;20.23;;
5414;SDS011;2730;51.512;7.504;2023-01-29T08:28:02;46.00;;;17.75;;
5414;SDS011;2730;51.512;7.504;2023-01-29T08:30:30;50.58;;;17.95;;
5414;SDS011;2730;51.512;7.504;2023-01-29T08:32:58;45.75;;;17.40;;
5414;SDS011;2730;51.512;7.504;2023-01-29T08:35:27;49.13;;;19.25;;
5414;SDS011;2730;51.512;7.504;2023-01-29T08:37:54;45.85;;;17.85;;
5414;SDS011;2730;51.512;7.504;2023-01-29T08:40:23;47.60;;;16.58;;
5414;SDS011;2730;51.512;7.504;2023-01-29T08:42:51;57.38;;;20.67;;
5414;SDS011;2730;51.512;7.504;2023-01-29T08:45:17;54.63;;;20.05;;
5414;SDS011;2730;51.512;7.504;2023-01-29T08:47:45;46.88;;;19.25;;
5414;SDS011;2730;51.512;7.504;2023-01-29T08:50:12;48.40;;;19.30;;
5414;SDS011;2730;51.512;7.504;2023-01-29T08:52:40;52.63;;;20.65;;
5414;SDS011;2730;51.512;7.504;2023-01-29T08:55:07;50.25;;;19.65;;
5414;SDS011;2730;51.512;7.504;2023-01-29T08:57:34;50.53;;;18.05;;
5414;SDS011;2730;51.512;7.504;2023-01-29T09:00:02;51.35;;;18.98;;
5414;SDS011;2730;51.512;7.504;2023-01-29T09:02:30;54.28;;;17.67;;
5414;SDS011;2730;51.512;7.504;2023-01-29T09:04:57;47.97;;;19.08;;
5414;SDS011;2730;51.512;7.504;2023-01-29T09:07:24;45.40;;;18.15;;
5414;SDS011;2730;51.512;7.504;2023-01-29T09:09:52;43.30;;;17.98;;
5414;SDS011;2730;51.512;7.504;2023-01-29T09:12:19;53.22;;;20.23;;
5414;SDS011;2730;51.512;7.504;2023-01-29T09:14:46;48.38;;;18.90;;
5414;SDS011;2730;51.512;7.504;2023-01-29T09:17:13;49.28;;;19.60;;
5414;SDS011;2730;51.512;7.504;2023-01-29T09:19:40;48.35;;;19.60;;
5414;SDS011;2730;51.512;7.504;2023-01-29T09:22:07;60.33;;;21.92;;
5414;SDS011;2730;51.512;7.504;2023-01-29T09:24:33;47.67;;;18.15;;
5414;SDS011;2730;51.512;7.504;2023-01-29T09:27:02;54.60;;;19.48;;
5414;SDS011;2730;51.512;7.504;2023-01-29T09:29:29;42.70;;;17.60;;
5414;SDS011;2730;51.512;7.504;2023-01-29T09:31:56;49.15;;;18.38;;
5414;SDS011;2730;51.512;7.504;2023-01-29T09:34:22;48.17;;;18.70;;
5414;SDS011;2730;51.512;7.504;2023-01-29T09:36:50;45.00;;;19.98;;
5414;SDS011;2730;51.512;7.504;2023-01-29T09:39:17;52.25;;;20.65;;
5414;SDS011;2730;51.512;7.504;2023-01-29T09:41:47;41.63;;;17.92;;
5414;SDS011;2730;51.512;7.504;2023-01-29T09:44:25;47.50;;;18.00;;
5414;SDS011;2730;51.512;7.504;2023-01-29T09:46:59;49.10;;;18.85;;
5414;SDS011;2730;51.512;7.504;2023-01-29T09:49:31;49.80;;;18.73;;
5414;SDS011;2730;51.512;7.504;2023-01-29T09:52:03;52.55;;;19.33;;
5414;SDS011;2730;51.512;7.504;2023-01-29T09:54:34;40.85;;;17.25;;
5414;SDS011;2730;51.512;7.504;2023-01-29T09:57:14;45.92;;;18.60;;
5414;SDS011;2730;51.512;7.504;2023-01-29T09:59:49;50.03;;;18.77;;
5414;SDS011;2730;51.512;7.504;2023-01-29T10:02:19;46.88;;;18.60;;
5414;SDS011;2730;51.512;7.504;2023-01-29T10:05:07;53.65;;;18.95;;
5414;SDS011;2730;51.512;7.504;2023-01-29T10:07:52;46.08;;;18.25;;
5414;SDS011;2730;51.512;7.504;2023-01-29T10:10:34;53.50;;;19.27;;
5414;SDS011;2730;51.512;7.504;2023-01-29T10:13:14;42.70;;;16.10;;
5414;SDS011;2730;51.512;7.504;2023-01-29T10:15:54;39.83;;;14.85;;
5414;SDS011;2730;51.512;7.504;2023-01-29T10:18:41;48.15;;;18.27;;
5414;SDS011;2730;51.512;7.504;2023-01-29T10:24:23;40.17;;;18.25;;
5414;SDS011;2730;51.512;7.504;2023-01-29T10:26:55;45.22;;;19.00;;
5414;SDS011;2730;51.512;7.504;2023-01-29T10:29:23;47.20;;;18.15;;
5414;SDS011;2730;51.512;7.504;2023-01-29T10:31:54;45.22;;;18.80;;
5414;SDS011;2730;51.512;7.504;2023-01-29T10:34:29;41.95;;;17.17;;
5414;SDS011;2730;51.512;7.504;2023-01-29T10:36:59;45.15;;;19.65;;
5414;SDS011;2730;51.512;7.504;2023-01-29T10:39:33;50.17;;;19.33;;
5414;SDS011;2730;51.512;7.504;2023-01-29T10:42:03;43.47;;;16.95;;
5414;SDS011;2730;51.512;7.504;2023-01-29T10:44:42;45.85;;;19.35;;
5414;SDS011;2730;51.512;7.504;2023-01-29T10:47:26;43.53;;;17.70;;
5414;SDS011;2730;51.512;7.504;2023-01-29T10:50:10;43.92;;;17.20;;
5414;SDS011;2730;51.512;7.504;2023-01-29T10:52:49;48.08;;;18.45;;
5414;SDS011;2730;51.512;7.504;2023-01-29T10:55:33;44.63;;;17.92;;
5414;SDS011;2730;51.512;7.504;2023-01-29T10:58:10;45.45;;;17.63;;
5414;SDS011;2730;51.512;7.504;2023-01-29T11:00:44;42.40;;;17.55;;
5414;SDS011;2730;51.512;7.504;2023-01-29T11:03:14;49.42;;;19.05;;
5414;SDS011;2730;51.512;7.504;2023-01-29T11:05:43;47.15;;;16.83;;
5414;SDS011;2730;51.512;7.504;2023-01-29T11:08:17;44.00;;;17.92;;
5414;SDS011;2730;51.512;7.504;2023-01-29T11:10:48;46.60;;;18.58;;
5414;SDS011;2730;51.512;7.504;2023-01-29T11:13:24;49.05;;;19.98;;
5414;SDS011;2730;51.512;7.504;2023-01-29T11:15:56;50.28;;;19.60;;
5414;SDS011;2730;51.512;7.504;2023-01-29T11:18:24;50.50;;;20.65;;
5414;SDS011;2730;51.512;7.504;2023-01-29T11:20:58;49.42;;;18.92;;
5414;SDS011;2730;51.512;7.504;2023-01-29T11:23:28;48.78;;;19.55;;
5414;SDS011;2730;51.512;7.504;2023-01-29T11:25:57;48.60;;;19.63;;
5414;SDS011;2730;51.512;7.504;2023-01-29T11:28:35;48.00;;;19.00;;
5414;SDS011;2730;51.512;7.504;2023-01-29T11:31:03;47.88;;;20.27;;
5414;SDS011;2730;51.512;7.504;2023-01-29T11:33:42;45.85;;;17.75;;
5414;SDS011;2730;51.512;7.504;2023-01-29T11:36:20;47.47;;;18.52;;
5414;SDS011;2730;51.512;7.504;2023-01-29T11:39:10;47.75;;;18.35;;
5414;SDS011;2730;51.512;7.504;2023-01-29T11:41:46;40.85;;;17.85;;
5414;SDS011;2730;51.512;7.504;2023-01-29T11:44:18;49.25;;;18.65;;
5414;SDS011;2730;51.512;7.504;2023-01-29T11:46:46;45.53;;;18.23;;
5414;SDS011;2730;51.512;7.504;2023-01-29T11:49:20;45.25;;;17.70;;
5414;SDS011;2730;51.512;7.504;2023-01-29T11:51:50;42.63;;;17.42;;
5414;SDS011;2730;51.512;7.504;2023-01-29T11:54:20;43.88;;;18.55;;
5414;SDS011;2730;51.512;7.504;2023-01-29T11:56:52;48.45;;;17.90;;
5414;SDS011;2730;51.512;7.504;2023-01-29T11:59:25;49.83;;;19.42;;
5414;SDS011;2730;51.512;7.504;2023-01-29T12:02:02;46.40;;;18.92;;
5414;SDS011;2730;51.512;7.504;2023-01-29T12:04:32;49.40;;;19.90;;
5414;SDS011;2730;51.512;7.504;2023-01-29T12:06:59;48.05;;;18.63;;
5414;SDS011;2730;51.512;7.504;2023-01-29T12:09:26;39.80;;;17.60;;
5414;SDS011;2730;51.512;7.504;2023-01-29T12:11:54;46.83;;;17.90;;
5414;SDS011;2730;51.512;7.504;2023-01-29T12:14:22;45.35;;;17.75;;
5414;SDS011;2730;51.512;7.504;2023-01-29T12:16:53;42.63;;;16.00;;
5414;SDS011;2730;51.512;7.504;2023-01-29T12:19:24;37.60;;;15.63;;
5414;SDS011;2730;51.512;7.504;2023-01-29T12:21:59;39.50;;;15.60;;
5414;SDS011;2730;51.512;7.504;2023-01-29T12:24:31;39.65;;;16.88;;
5414;SDS011;2730;51.512;7.504;2023-01-29T12:27:06;42.65;;;15.85;;
5414;SDS011;2730;51.512;7.504;2023-01-29T12:29:40;40.85;;;16.38;;
5414;SDS011;2730;51.512;7.504;2023-01-29T12:32:17;41.03;;;15.45;;
5414;SDS011;2730;51.512;7.504;2023-01-29T12:34:54;43.97;;;15.82;;
5414;SDS011;2730;51.512;7.504;2023-01-29T12:37:29;40.03;;;15.40;;
5414;SDS011;2730;51.512;7.504;2023-01-29T12:40:09;40.42;;;15.73;;
5414;SDS011;2730;51.512;7.504;2023-01-29T12:42:38;37.15;;;15.63;;
5414;SDS011;2730;51.512;7.504;2023-01-29T12:45:07;37.00;;;15.13;;
5414;SDS011;2730;51.512;7.504;2023-01-29T12:47:41;36.65;;;16.40;;
5414;SDS011;2730;51.512;7.504;2023-01-29T12:50:13;41.10;;;17.05;;
5414;SDS011;2730;51.512;7.504;2023-01-29T12:52:46;39.45;;;15.43;;
5414;SDS011;2730;51.512;7.504;2023-01-29T12:55:17;39.95;;;15.43;;
5414;SDS011;2730;51.512;7.504;2023-01-29T12:57:47;36.95;;;16.30;;
5414;SDS011;2730;51.512;7.504;2023-01-29T13:00:20;35.25;;;14.10;;
5414;SDS011;2730;51.512;7.504;2023-01-29T13:02:52;33.90;;;14.93;;
5414;SDS011;2730;51.512;7.504;2023-01-29T13:05:24;32.55;;;14.35;;
5414;SDS011;2730;51.512;7.504;2023-01-29T13:07:58;30.00;;;13.73;;
5414;SDS011;2730;51.512;7.504;2023-01-29T13:10:30;34.08;;;13.20;;
5414;SDS011;2730;51.512;7.504;2023-01-29T13:13:03;30.55;;;13.93;;
5414;SDS011;2730;51.512;7.504;2023-01-29T13:15:33;37.08;;;13.88;;
5414;SDS011;2730;51.512;7.504;2023-01-29T13:18:06;34.35;;;14.73;;
5414;SDS011;2730;51.512;7.504;2023-01-29T13:20:55;30.63;;;13.38;;
5414;SDS011;2730;51.512;7.504;2023-01-29T13:23:24;30.60;;;14.05;;
5414;SDS011;2730;51.512;7.504;2023-01-29T13:25:57;35.15;;;15.20;;
5414;SDS011;2730;51.512;7.504;2023-01-29T13:28:25;36.00;;;14.52;;
5414;SDS011;2730;51.512;7.504;2023-01-29T13:33:51;34.90;;;13.77;;
5414;SDS011;2730;51.512;7.504;2023-01-29T13:36:22;34.13;;;13.45;;
5414;SDS011;2730;51.512;7.504;2023-01-29T13:38:56;42.60;;;15.52;;
5414;SDS011;2730;51.512;7.504;2023-01-29T13:41:31;42.40;;;15.40;;
5414;SDS011;2730;51.512;7.504;2023-01-29T13:43:59;40.08;;;14.93;;
5414;SDS011;2730;51.512;7.504;2023-01-29T13:46:26;39.10;;;16.25;;
5414;SDS011;2730;51.512;7.504;2023-01-29T13:48:55;41.90;;;15.98;;
5414;SDS011;2730;51.512;7.504;2023-01-29T13:51:30;39.25;;;16.40;;
5414;SDS011;2730;51.512;7.504;2023-01-29T13:54:02;37.60;;;15.65;;
5414;SDS011;2730;51.512;7.504;2023-01-29T13:56:43;42.75;;;16.33;;
5414;SDS011;2730;51.512;7.504;2023-01-29T13:59:20;34.85;;;14.75;;
5414;SDS011;2730;51.512;7.504;2023-01-29T14:02:01;37.75;;;15.02;;
5414;SDS011;2730;51.512;7.504;2023-01-29T14:04:43;39.80;;;16.48;;
5414;SDS011;2730;51.512;7.504;2023-01-29T14:10:16;31.30;;;15.18;;
5414;SDS011;2730;51.512;7.504;2023-01-29T14:12:45;37.75;;;14.75;;
5414;SDS011;2730;51.512;7.504;2023-01-29T14:15:17;32.15;;;14.40;;
5414;SDS011;2730;51.512;7.504;2023-01-29T14:20:40;32.17;;;13.43;;
5414;SDS011;2730;51.512;7.504;2023-01-29T14:23:20;29.98;;;13.00;;
5414;SDS011;2730;51.512;7.504;2023-01-29T14:25:54;36.55;;;14.13;;
5414;SDS011;2730;51.512;7.504;2023-01-29T14:28:22;30.83;;;13.32;;
5414;SDS011;2730;51.512;7.504;2023-01-29T14:30:52;30.90;;;13.13;;
5414;SDS011;2730;51.512;7.504;2023-01-29T14:33:22;51.03;;;14.10;;
5414;SDS011;2730;51.512;7.504;2023-01-29T14:35:52;25.85;;;11.27;;
5414;SDS011;2730;51.512;7.504;2023-01-29T14:38:22;30.75;;;12.95;;
5414;SDS011;2730;51.512;7.504;2023-01-29T14:41:02;33.30;;;14.13;;
5414;SDS011;2730;51.512;7.504;2023-01-29T14:43:32;29.52;;;11.52;;
5414;SDS011;2730;51.512;7.504;2023-01-29T14:48:59;30.58;;;11.88;;
5414;SDS011;2730;51.512;7.504;2023-01-29T14:51:26;27.05;;;11.80;;
5414;SDS011;2730;51.512;7.504;2023-01-29T14:54:00;31.85;;;12.98;;
5414;SDS011;2730;51.512;7.504;2023-01-29T14:56:33;31.10;;;13.25;;
5414;SDS011;2730;51.512;7.504;2023-01-29T14:59:04;24.65;;;11.25;;
5414;SDS011;2730;51.512;7.504;2023-01-29T15:01:42;26.13;;;11.98;;
5414;SDS011;2730;51.512;7.504;2023-01-29T15:04:13;27.42;;;11.90;;
5414;SDS011;2730;51.512;7.504;2023-01-29T15:06:45;28.08;;;11.48;;
5414;SDS011;2730;51.512;7.504;2023-01-29T15:09:15;30.10;;;10.50;;
5414;SDS011;2730;51.512;7.504;2023-01-29T15:11:54;24.17;;;9.95;;
5414;SDS011;2730;51.512;7.504;2023-01-29T15:14:29;26.15;;;10.30;;
5414;SDS011;2730;51.512;7.504;2023-01-29T15:17:04;24.25;;;9.82;;
5414;SDS011;2730;51.512;7.504;2023-01-29T15:19:41;25.27;;;10.85;;
5414;SDS011;2730;51.512;7.504;2023-01-29T15:22:10;29.70;;;12.35;;
5414;SDS011;2730;51.512;7.504;2023-01-29T15:24:39;31.02;;;12.25;;
5414;SDS011;2730;51.512;7.504;2023-01-29T15:27:10;24.88;;;11.13;;
5414;SDS011;2730;51.512;7.504;2023-01-29T15:29:39;23.73;;;10.73;;
5414;SDS011;2730;51.512;7.504;2023-01-29T15:32:10;22.02;;;9.07;;
5414;SDS011;2730;51.512;7.504;2023-01-29T15:34:44;20.27;;;9.23;;
5414;SDS011;2730;51.512;7.504;2023-01-29T15:37:28;20.42;;;8.60;;
5414;SDS011;2730;51.512;7.504;2023-01-29T15:39:56;27.65;;;10.50;;
5414;SDS011;2730;51.512;7.504;2023-01-29T15:42:26;26.02;;;10.10;;
5414;SDS011;2730;51.512;7.504;2023-01-29T15:44:54;21.63;;;8.65;;
5414;SDS011;2730;51.512;7.504;2023-01-29T15:47:22;24.75;;;10.10;;
5414;SDS011;2730;51.512;7.504;2023-01-29T15:49:53;23.02;;;10.07;;
5414;SDS011;2730;51.512;7.504;2023-01-29T15:52:23;15.95;;;8.45;;
5414;SDS011;2730;51.512;7.504;2023-01-29T15:54:54;19.15;;;9.02;;
5414;SDS011;2730;51.512;7.504;2023-01-29T15:57:23;22.08;;;8.88;;
5414;SDS011;2730;51.512;7.504;2023-01-29T15:59:58;15.73;;;8.30;;
5414;SDS011;2730;51.512;7.504;2023-01-29T16:02:34;16.65;;;8.02;;
5414;SDS011;2730;51.512;7.504;2023-01-29T16:05:03;17.85;;;8.75;;
5414;SDS011;2730;51.512;7.504;2023-01-29T16:07:35;22.42;;;8.05;;
5414;SDS011;2730;51.512;7.504;2023-01-29T16:10:03;31.52;;;10.07;;
5414;SDS011;2730;51.512;7.504;2023-01-29T16:12:33;21.95;;;9.02;;
5414;SDS011;2730;51.512;7.504;2023-01-29T16:15:02;19.02;;;8.57;;
5414;SDS011;2730;51.512;7.504;2023-01-29T16:17:30;23.38;;;9.88;;
5414;SDS011;2730;51.512;7.504;2023-01-29T16:20:00;22.08;;;9.05;;
5414;SDS011;2730;51.512;7.504;2023-01-29T16:22:29;22.55;;;9.77;;
5414;SDS011;2730;51.512;7.504;2023-01-29T16:25:00;20.60;;;8.52;;
5414;SDS011;2730;51.512;7.504;2023-01-29T16:27:28;23.27;;;8.68;;
5414;SDS011;2730;51.512;7.504;2023-01-29T16:29:58;20.58;;;9.35;;
5414;SDS011;2730;51.512;7.504;2023-01-29T16:32:26;25.65;;;9.52;;
5414;SDS011;2730;51.512;7.504;2023-01-29T16:34:55;28.33;;;9.35;;
5414;SDS011;2730;51.512;7.504;2023-01-29T16:37:24;16.77;;;8.68;;
5414;SDS011;2730;51.512;7.504;2023-01-29T16:39:54;23.58;;;9.70;;
5414;SDS011;2730;51.512;7.504;2023-01-29T16:42:22;31.48;;;10.48;;
5414;SDS011;2730;51.512;7.504;2023-01-29T16:44:51;26.50;;;9.32;;
5414;SDS011;2730;51.512;7.504;2023-01-29T16:47:22;24.25;;;9.77;;
5414;SDS011;2730;51.512;7.504;2023-01-29T16:49:56;23.23;;;9.52;;
5414;SDS011;2730;51.512;7.504;2023-01-29T16:52:25;26.50;;;13.02;;
5414;SDS011;2730;51.512;7.504;2023-01-29T16:55:00;24.95;;;11.10;;
5414;SDS011;2730;51.512;7.504;2023-01-29T16:57:40;23.35;;;11.50;;
5414;SDS011;2730;51.512;7.504;2023-01-29T17:00:12;28.13;;;12.38;;
5414;SDS011;2730;51.512;7.504;2023-01-29T17:02:47;31.48;;;13.15;;
5414;SDS011;2730;51.512;7.504;2023-01-29T17:05:18;26.17;;;11.85;;
5414;SDS011;2730;51.512;7.504;2023-01-29T17:07:48;33.22;;;12.77;;
5414;SDS011;2730;51.512;7.504;2023-01-29T17:10:16;30.45;;;12.13;;
5414;SDS011;2730;51.512;7.504;2023-01-29T17:12:47;29.73;;;12.30;;
5414;SDS011;2730;51.512;7.504;2023-01-29T17:15:27;27.80;;;12.38;;
5414;SDS011;2730;51.512;7.504;2023-01-29T17:17:57;31.15;;;12.77;;
5414;SDS011;2730;51.512;7.504;2023-01-29T17:20:24;30.88;;;13.02;;
5414;SDS011;2730;51.512;7.504;2023-01-29T17:22:51;30.67;;;12.30;;
5414;SDS011;2730;51.512;7.504;2023-01-29T17:25:18;31.80;;;13.30;;
5414;SDS011;2730;51.512;7.504;2023-01-29T17:27:46;30.73;;;12.50;;
5414;SDS011;2730;51.512;7.504;2023-01-29T17:30:16;34.33;;;12.70;;
5414;SDS011;2730;51.512;7.504;2023-01-29T17:32:45;29.25;;;12.05;;
5414;SDS011;2730;51.512;7.504;2023-01-29T17:35:13;31.80;;;12.93;;
5414;SDS011;2730;51.512;7.504;2023-01-29T17:37:41;37.45;;;13.02;;
5414;SDS011;2730;51.512;7.504;2023-01-29T17:40:14;29.08;;;12.18;;
5414;SDS011;2730;51.512;7.504;2023-01-29T17:42:45;38.17;;;12.95;;
5414;SDS011;2730;51.512;7.504;2023-01-29T17:45:12;28.48;;;12.00;;
5414;SDS011;2730;51.512;7.504;2023-01-29T17:47:39;32.63;;;14.23;;
5414;SDS011;2730;51.512;7.504;2023-01-29T17:50:09;33.03;;;13.70;;
5414;SDS011;2730;51.512;7.504;2023-01-29T17:52:46;35.42;;;12.30;;
5414;SDS011;2730;51.512;7.504;2023-01-29T17:55:13;33.60;;;13.20;;
5414;SDS011;2730;51.512;7.504;2023-01-29T17:57:39;30.48;;;12.93;;
5414;SDS011;2730;51.512;7.504;2023-01-29T18:00:11;27.83;;;12.60;;
5414;SDS011;2730;51.512;7.504;2023-01-29T18:02:40;32.28;;;13.32;;
5414;SDS011;2730;51.512;7.504;2023-01-29T18:05:07;27.27;;;12.32;;
5414;SDS011;2730;51.512;7.504;2023-01-29T18:07:36;36.00;;;13.35;;
5414;SDS011;2730;51.512;7.504;2023-01-29T18:10:05;25.65;;;10.82;;
5414;SDS011;2730;51.512;7.504;2023-01-29T18:12:36;27.67;;;11.95;;
5414;SDS011;2730;51.512;7.504;2023-01-29T18:15:03;28.27;;;11.60;;
5414;SDS011;2730;51.512;7.504;2023-01-29T18:17:31;32.47;;;13.05;;
5414;SDS011;2730;51.512;7.504;2023-01-29T18:19:57;32.30;;;11.43;;
5414;SDS011;2730;51.512;7.504;2023-01-29T18:22:24;32.30;;;13.00;;
5414;SDS011;2730;51.512;7.504;2023-01-29T18:24:52;29.50;;;12.68;;
5414;SDS011;2730;51.512;7.504;2023-01-29T18:27:19;40.50;;;14.35;;
5414;SDS011;2730;51.512;7.504;2023-01-29T18:29:46;28.52;;;12.65;;
5414;SDS011;2730;51.512;7.504;2023-01-29T18:32:14;31.42;;;14.40;;
5414;SDS011;2730;51.512;7.504;2023-01-29T18:34:41;33.40;;;12.93;;
5414;SDS011;2730;51.512;7.504;2023-01-29T18:37:07;35.95;;;13.68;;
5414;SDS011;2730;51.512;7.504;2023-01-29T18:39:34;29.70;;;12.20;;
5414;SDS011;2730;51.512;7.504;2023-01-29T18:42:02;29.75;;;12.95;;
5414;SDS011;2730;51.512;7.504;2023-01-29T18:44:29;35.95;;;14.45;;
5414;SDS011;2730;51.512;7.504;2023-01-29T18:46:56;36.28;;;14.80;;
5414;SDS011;2730;51.512;7.504;2023-01-29T18:49:23;33.78;;;13.98;;
5414;SDS011;2730;51.512;7.504;2023-01-29T18:51:50;33.50;;;15.73;;
5414;SDS011;2730;51.512;7.504;2023-01-29T18:54:17;27.48;;;12.43;;
5414;SDS011;2730;51.512;7.504;2023-01-29T18:56:45;33.63;;;13.90;;
5414;SDS011;2730;51.512;7.504;2023-01-29T18:59:13;29.05;;;13.43;;
5414;SDS011;2730;51.512;7.504;2023-01-29T19:01:40;26.98;;;12.20;;
5414;SDS011;2730;51.512;7.504;2023-01-29T19:04:07;31.85;;;13.50;;
5414;SDS011;2730;51.512;7.504;2023-01-29T19:06:33;33.03;;;14.18;;
5414;SDS011;2730;51.512;7.504;2023-01-29T19:09:00;33.05;;;12.57;;
5414;SDS011;2730;51.512;7.504;2023-01-29T19:11:27;27.10;;;11.80;;
5414;SDS011;2730;51.512;7.504;2023-01-29T19:13:54;28.02;;;12.50;;
5414;SDS011;2730;51.512;7.504;2023-01-29T19:16:22;28.23;;;11.82;;
5414;SDS011;2730;51.512;7.504;2023-01-29T19:18:51;30.30;;;11.50;;